Time;durP1;ratioP1;P1;durP2;ratioP2;P2;SDS_P1;SDS_P2;PMS_P1;PMS_P2;Temp;Humidity;BMP_temperature;BMP_pressure;BME280_temperature;BME280_humidity;BME280_pressure;Samples;Min_cycle;Max_cycle;Signal;HPM_P1;HPM_P2
2023/08/01 02:00:26;;;;;;;2.78;2.47;;;;;;;;;;4910804;28;20053;-78
2023/08/01 02:02:52;;;;;;;8.93;2.78;;;;;;;;;;4290426;33;20070;-79
2023/08/01 02:05:19;;;;;;;5.90;2.53;;;;;;;;;;4284545;33;20068;-78
2023/08/01 02:07:46;;;;;;;11.50;4.12;;;;;;;;;;4291652;33;20070;-78
2023/08/01 02:10:11;;;;;;;4.50;2.70;;;;;;;;;;4261345;33;20071;-77
2023/08/01 02:12:38;;;;;;;7.53;2.83;;;;;;;;;;4263339;33;20158;-77
2023/08/01 02:15:10;;;;;;;4.43;2.87;;;;;;;;;;4263744;33;20046;-78
2023/08/01 02:17:38;;;;;;;7.72;2.85;;;;;;;;;;4263184;33;20077;-78
2023/08/01 02:20:04;;;;;;;7.50;2.85;;;;;;;;;;4262946;33;20480;-77
2023/08/01 02:22:31;;;;;;;9.20;2.70;;;;;;;;;;4260993;33;20053;-78
2023/08/01 02:24:56;;;;;;;8.57;2.17;;;;;;;;;;4265896;33;21466;-77
2023/08/01 02:27:23;;;;;;;3.65;2.28;;;;;;;;;;4250502;33;20076;-76
2023/08/01 02:29:50;;;;;;;8.85;3.00;;;;;;;;;;4235854;33;20369;-77
2023/08/01 02:32:17;;;;;;;7.00;2.40;;;;;;;;;;4235317;33;20062;-77
2023/08/01 02:34:43;;;;;;;2.78;2.15;;;;;;;;;;4244500;33;20407;-77
2023/08/01 02:37:09;;;;;;;4.70;2.65;;;;;;;;;;4249584;33;20198;-77
2023/08/01 02:39:35;;;;;;;4.47;2.53;;;;;;;;;;4252214;33;20046;-78
2023/08/01 02:42:02;;;;;;;18.25;3.42;;;;;;;;;;4277915;33;20086;-77
2023/08/01 02:44:28;;;;;;;12.00;3.03;;;;;;;;;;4280804;33;20125;-77
2023/08/01 02:46:55;;;;;;;6.47;2.75;;;;;;;;;;4278052;33;20133;-77
2023/08/01 02:49:21;;;;;;;7.68;2.55;;;;;;;;;;4260330;33;20796;-77
2023/08/01 02:51:48;;;;;;;8.85;3.20;;;;;;;;;;4249702;33;20075;-77
2023/08/01 02:54:14;;;;;;;3.55;2.22;;;;;;;;;;4247728;33;20046;-77
2023/08/01 02:56:41;;;;;;;4.72;2.50;;;;;;;;;;4247551;33;20442;-77
2023/08/01 02:59:10;;;;;;;5.05;2.83;;;;;;;;;;4246848;33;20443;-78
2023/08/01 03:01:37;;;;;;;7.82;2.30;;;;;;;;;;4273333;33;20057;-79
2023/08/01 03:04:13;;;;;;;6.95;2.42;;;;;;;;;;4293615;33;20037;-80
2023/08/01 03:06:39;;;;;;;5.07;2.37;;;;;;;;;;4293199;33;20224;-81
2023/08/01 03:09:07;;;;;;;4.45;2.47;;;;;;;;;;4305629;33;20041;-78
2023/08/01 03:11:39;;;;;;;6.53;3.33;;;;;;;;;;4307490;33;20056;-78
2023/08/01 03:14:05;;;;;;;4.80;2.40;;;;;;;;;;4309283;33;20394;-77
2023/08/01 03:16:38;;;;;;;5.68;2.65;;;;;;;;;;4308878;33;20064;-78
2023/08/01 03:19:08;;;;;;;7.43;2.42;;;;;;;;;;4303323;33;20483;-80
2023/08/01 03:21:34;;;;;;;4.28;2.67;;;;;;;;;;4280327;33;20236;-80
2023/08/01 03:24:01;;;;;;;8.57;3.00;;;;;;;;;;4294932;33;20045;-79
2023/08/01 03:26:28;;;;;;;5.80;3.22;;;;;;;;;;4293831;33;20064;-79
2023/08/01 03:28:55;;;;;;;3.47;2.67;;;;;;;;;;4292400;33;20074;-79
2023/08/01 03:31:24;;;;;;;5.35;2.97;;;;;;;;;;4293653;33;20057;-79
2023/08/01 03:33:50;;;;;;;5.07;3.22;;;;;;;;;;4293047;33;20105;-79
2023/08/01 03:36:16;;;;;;;8.40;2.90;;;;;;;;;;4293124;33;20053;-79
2023/08/01 03:38:43;;;;;;;3.55;3.20;;;;;;;;;;4293712;33;20067;-79
2023/08/01 03:41:09;;;;;;;5.65;3.05;;;;;;;;;;4307762;33;20496;-78
2023/08/01 03:43:35;;;;;;;5.93;3.12;;;;;;;;;;4308508;33;20556;-78
2023/08/01 03:46:01;;;;;;;7.00;3.90;;;;;;;;;;4282234;33;20061;-79
2023/08/01 03:48:27;;;;;;;9.48;2.85;;;;;;;;;;4282787;33;20541;-79
2023/08/01 03:50:54;;;;;;;6.20;2.37;;;;;;;;;;4277766;33;20390;-79
2023/08/01 03:53:20;;;;;;;7.30;2.78;;;;;;;;;;4277587;33;20041;-79
2023/08/01 03:55:47;;;;;;;7.80;2.97;;;;;;;;;;4278583;33;20042;-78
2023/08/01 03:58:13;;;;;;;6.10;3.08;;;;;;;;;;4278387;33;20041;-78
2023/08/01 04:00:40;;;;;;;8.90;2.97;;;;;;;;;;4271115;33;20058;-79
2023/08/01 04:03:06;;;;;;;10.13;2.80;;;;;;;;;;4276914;33;20482;-78
2023/08/01 04:05:32;;;;;;;14.07;3.42;;;;;;;;;;4268636;33;20452;-79
2023/08/01 04:07:58;;;;;;;9.35;3.22;;;;;;;;;;4265358;33;20063;-77
2023/08/01 04:10:25;;;;;;;6.90;2.65;;;;;;;;;;4263567;33;20053;-78
2023/08/01 04:12:51;;;;;;;7.50;3.08;;;;;;;;;;4264426;33;20346;-78
2023/08/01 04:15:17;;;;;;;9.05;2.45;;;;;;;;;;4261953;33;20212;-78
2023/08/01 04:17:43;;;;;;;9.73;2.50;;;;;;;;;;4274604;33;20071;-79
2023/08/01 04:20:10;;;;;;;3.58;2.80;;;;;;;;;;4279193;33;20041;-77
2023/08/01 04:22:35;;;;;;;7.43;2.50;;;;;;;;;;4279688;33;20529;-78
2023/08/01 04:25:02;;;;;;;11.00;2.47;;;;;;;;;;4288196;33;20059;-78
2023/08/01 04:27:28;;;;;;;15.57;2.80;;;;;;;;;;4307608;33;20062;-78
2023/08/01 04:29:57;;;;;;;4.93;2.83;;;;;;;;;;4307026;33;20044;-78
2023/08/01 04:32:23;;;;;;;5.37;2.55;;;;;;;;;;4307187;33;20037;-78
2023/08/01 04:34:49;;;;;;;8.75;3.00;;;;;;;;;;4307254;33;20045;-77
2023/08/01 04:37:15;;;;;;;4.78;2.97;;;;;;;;;;4306433;33;20057;-78
2023/08/01 04:39:42;;;;;;;4.75;2.30;;;;;;;;;;4303824;33;20872;-79
2023/08/01 04:42:08;;;;;;;8.95;2.37;;;;;;;;;;4306734;33;20061;-79
2023/08/01 04:44:34;;;;;;;6.72;2.47;;;;;;;;;;4313842;33;20086;-80
2023/08/01 04:47:00;;;;;;;7.80;2.83;;;;;;;;;;4324838;33;20081;-79
2023/08/01 04:49:26;;;;;;;5.53;2.33;;;;;;;;;;4322867;33;20356;-79
2023/08/01 04:51:52;;;;;;;8.05;2.30;;;;;;;;;;4322257;33;20059;-79
2023/08/01 04:54:19;;;;;;;4.28;2.22;;;;;;;;;;4321232;33;20374;-79
2023/08/01 04:56:45;;;;;;;6.60;2.22;;;;;;;;;;4317017;33;20048;-80
2023/08/01 04:59:11;;;;;;;6.87;2.33;;;;;;;;;;4318327;33;20066;-80
2023/08/01 05:01:37;;;;;;;19.87;2.78;;;;;;;;;;4314608;33;20091;-79
2023/08/01 05:04:03;;;;;;;4.30;2.40;;;;;;;;;;4313006;33;20073;-81
2023/08/01 05:06:29;;;;;;;7.53;2.87;;;;;;;;;;4317287;33;20040;-79
2023/08/01 05:08:56;;;;;;;7.45;3.12;;;;;;;;;;4304316;33;20064;-80
2023/08/01 05:11:22;;;;;;;4.60;2.10;;;;;;;;;;4306069;33;20071;-80
2023/08/01 05:13:49;;;;;;;10.07;2.62;;;;;;;;;;4303827;33;20098;-80
2023/08/01 05:16:15;;;;;;;11.12;4.05;;;;;;;;;;4291547;33;20056;-80
2023/08/01 05:18:41;;;;;;;14.43;2.12;;;;;;;;;;4291058;33;20108;-78
2023/08/01 05:21:07;;;;;;;7.12;2.25;;;;;;;;;;4291085;33;20123;-80
2023/08/01 05:23:34;;;;;;;18.55;3.00;;;;;;;;;;4278824;33;20128;-79
2023/08/01 05:26:00;;;;;;;10.15;2.45;;;;;;;;;;4262756;33;20204;-77
2023/08/01 05:28:26;;;;;;;5.90;2.70;;;;;;;;;;4263106;33;20053;-79
2023/08/01 05:30:52;;;;;;;10.00;2.15;;;;;;;;;;4256129;33;20061;-79
2023/08/01 05:33:21;;;;;;;7.20;2.50;;;;;;;;;;4262694;33;20091;-77
2023/08/01 05:35:53;;;;;;;7.93;3.12;;;;;;;;;;4252110;33;20107;-78
2023/08/01 05:38:19;;;;;;;7.00;2.75;;;;;;;;;;4263072;33;20102;-79
2023/08/01 05:40:45;;;;;;;7.97;2.70;;;;;;;;;;4265240;33;20042;-79
2023/08/01 05:43:12;;;;;;;6.15;2.22;;;;;;;;;;4276909;33;20189;-79
2023/08/01 05:45:38;;;;;;;8.63;2.87;;;;;;;;;;4275912;33;20049;-80
2023/08/01 05:48:04;;;;;;;5.47;2.55;;;;;;;;;;4261688;33;20045;-78
2023/08/01 05:50:30;;;;;;;8.80;2.80;;;;;;;;;;4294722;33;20120;-76
2023/08/01 05:52:57;;;;;;;6.12;2.80;;;;;;;;;;4276011;33;20107;-75
2023/08/01 05:55:23;;;;;;;12.07;3.03;;;;;;;;;;4278723;33;20558;-75
2023/08/01 05:57:52;;;;;;;9.70;2.67;;;;;;;;;;4294518;33;20406;-75
2023/08/01 06:00:21;;;;;;;6.75;2.22;;;;;;;;;;4292195;33;20086;-75
2023/08/01 06:02:48;;;;;;;4.90;2.85;;;;;;;;;;4280086;33;20081;-75
2023/08/01 06:05:14;;;;;;;6.93;2.20;;;;;;;;;;4266634;33;20478;-75
2023/08/01 06:07:41;;;;;;;4.45;2.20;;;;;;;;;;4266630;33;20064;-76
2023/08/01 06:10:07;;;;;;;5.05;2.50;;;;;;;;;;4264694;33;20082;-76
2023/08/01 06:12:34;;;;;;;3.35;2.50;;;;;;;;;;4284819;33;20779;-75
2023/08/01 06:15:00;;;;;;;5.53;2.42;;;;;;;;;;4286350;33;20037;-76
2023/08/01 06:17:26;;;;;;;5.32;2.40;;;;;;;;;;4292016;33;20055;-76
2023/08/01 06:19:54;;;;;;;12.18;2.42;;;;;;;;;;4291667;33;20034;-75
2023/08/01 06:22:20;;;;;;;7.03;2.37;;;;;;;;;;4290397;33;20664;-76
2023/08/01 06:24:46;;;;;;;7.25;2.20;;;;;;;;;;4291227;33;20546;-75
2023/08/01 06:27:14;;;;;;;9.43;1.90;;;;;;;;;;4274769;33;20058;-76
2023/08/01 06:29:40;;;;;;;12.98;2.62;;;;;;;;;;4276949;33;20067;-76
2023/08/01 06:32:07;;;;;;;9.30;2.58;;;;;;;;;;4274756;33;20432;-76
2023/08/01 06:34:33;;;;;;;5.07;2.00;;;;;;;;;;4292381;33;20084;-76
2023/08/01 06:36:59;;;;;;;5.45;2.20;;;;;;;;;;4307898;33;20059;-76
2023/08/01 06:39:25;;;;;;;5.55;2.53;;;;;;;;;;4308132;33;20095;-75
2023/08/01 06:41:51;;;;;;;5.43;2.42;;;;;;;;;;4306584;33;20077;-77
2023/08/01 06:44:17;;;;;;;4.85;2.28;;;;;;;;;;4279472;33;20086;-75
2023/08/01 06:46:44;;;;;;;11.12;2.20;;;;;;;;;;4276770;33;20404;-77
2023/08/01 06:49:16;;;;;;;10.27;2.15;;;;;;;;;;4279081;33;20100;-74
2023/08/01 06:51:42;;;;;;;6.93;2.30;;;;;;;;;;4280043;33;20054;-75
2023/08/01 06:54:09;;;;;;;6.32;2.28;;;;;;;;;;4278447;33;20040;-76
2023/08/01 06:56:35;;;;;;;4.80;2.00;;;;;;;;;;4270926;33;20053;-76
2023/08/01 06:59:01;;;;;;;4.10;1.87;;;;;;;;;;4264978;33;20113;-76
2023/08/01 07:01:27;;;;;;;10.32;2.50;;;;;;;;;;4264275;33;20091;-75
2023/08/01 07:03:53;;;;;;;12.57;2.28;;;;;;;;;;4267978;33;20084;-77
2023/08/01 07:06:20;;;;;;;7.57;2.25;;;;;;;;;;4269731;33;20061;-76
2023/08/01 07:08:46;;;;;;;4.78;2.15;;;;;;;;;;4267593;33;20654;-77
2023/08/01 07:11:12;;;;;;;3.45;1.70;;;;;;;;;;4289035;33;20063;-79
2023/08/01 07:13:38;;;;;;;13.80;2.40;;;;;;;;;;4282822;33;20060;-77
2023/08/01 07:16:05;;;;;;;6.68;1.87;;;;;;;;;;4304519;33;20045;-76
2023/08/01 07:18:34;;;;;;;4.95;2.28;;;;;;;;;;4312557;33;20439;-76
2023/08/01 07:21:01;;;;;;;5.95;2.28;;;;;;;;;;4306308;33;20063;-76
2023/08/01 07:23:28;;;;;;;5.60;2.45;;;;;;;;;;4308903;33;20127;-74
2023/08/01 07:25:54;;;;;;;7.55;2.30;;;;;;;;;;4308345;33;20056;-75
2023/08/01 07:28:21;;;;;;;6.62;2.00;;;;;;;;;;4309911;33;20086;-76
2023/08/01 07:30:47;;;;;;;12.40;2.20;;;;;;;;;;4321333;33;20179;-78
2023/08/01 07:33:14;;;;;;;10.20;2.22;;;;;;;;;;4305768;33;20441;-76
2023/08/01 07:35:40;;;;;;;17.90;2.50;;;;;;;;;;4307875;33;20055;-77
2023/08/01 07:38:06;;;;;;;6.87;2.70;;;;;;;;;;4308775;33;20076;-76
2023/08/01 07:40:35;;;;;;;14.20;2.47;;;;;;;;;;4307992;33;20199;-76
2023/08/01 07:43:01;;;;;;;6.82;2.12;;;;;;;;;;4305273;33;20044;-78
2023/08/01 07:45:28;;;;;;;4.60;2.20;;;;;;;;;;4306485;33;20074;-77
2023/08/01 07:47:54;;;;;;;6.00;2.20;;;;;;;;;;4308303;33;20061;-75
2023/08/01 07:50:20;;;;;;;5.87;1.90;;;;;;;;;;4306467;33;20082;-77
2023/08/01 07:52:46;;;;;;;9.32;2.00;;;;;;;;;;4297378;33;20075;-75
2023/08/01 07:55:12;;;;;;;6.82;2.37;;;;;;;;;;4297236;33;20074;-76
2023/08/01 07:57:38;;;;;;;14.23;2.45;;;;;;;;;;4276841;33;20046;-75
2023/08/01 08:00:05;;;;;;;7.57;2.12;;;;;;;;;;4278392;33;20057;-75
2023/08/01 08:02:40;;;;;;;5.68;2.40;;;;;;;;;;4280054;33;20041;-76
2023/08/01 08:05:07;;;;;;;4.37;2.10;;;;;;;;;;4269456;33;20093;-81
2023/08/01 08:07:33;;;;;;;4.57;2.70;;;;;;;;;;4261016;33;20167;-75
2023/08/01 08:10:00;;;;;;;9.55;2.40;;;;;;;;;;4267482;33;20079;-75
2023/08/01 08:12:26;;;;;;;3.80;2.30;;;;;;;;;;4267844;33;20042;-76
2023/08/01 08:14:52;;;;;;;4.90;2.03;;;;;;;;;;4264872;33;20087;-75
2023/08/01 08:17:18;;;;;;;5.12;2.60;;;;;;;;;;4263231;33;20088;-76
2023/08/01 08:19:45;;;;;;;11.65;2.53;;;;;;;;;;4260332;33;20218;-76
2023/08/01 08:22:11;;;;;;;6.75;2.75;;;;;;;;;;4264322;33;20049;-76
2023/08/01 08:24:37;;;;;;;4.25;2.05;;;;;;;;;;4265429;33;20406;-75
2023/08/01 08:27:03;;;;;;;8.32;2.55;;;;;;;;;;4263462;33;20063;-75
2023/08/01 08:29:30;;;;;;;9.40;2.25;;;;;;;;;;4275452;33;20419;-75
2023/08/01 08:31:56;;;;;;;17.73;3.20;;;;;;;;;;4277332;33;20078;-76
2023/08/01 08:34:22;;;;;;;4.45;2.25;;;;;;;;;;4279089;33;20045;-76
2023/08/01 08:36:50;;;;;;;6.90;2.42;;;;;;;;;;4302316;33;20076;-75
2023/08/01 08:39:17;;;;;;;4.75;2.50;;;;;;;;;;4308889;33;20455;-75
2023/08/01 08:41:46;;;;;;;3.70;2.15;;;;;;;;;;4309255;33;20053;-76
2023/08/01 08:44:14;;;;;;;2.67;2.00;;;;;;;;;;4307949;33;20040;-76
2023/08/01 08:46:43;;;;;;;5.65;3.15;;;;;;;;;;4277552;33;20645;-76
2023/08/01 08:49:10;;;;;;;11.15;3.15;;;;;;;;;;4262412;33;20101;-75
2023/08/01 08:51:37;;;;;;;9.85;2.60;;;;;;;;;;4251052;33;20103;-74
2023/08/01 08:54:05;;;;;;;8.68;3.12;;;;;;;;;;4234181;33;20054;-76
2023/08/01 08:56:31;;;;;;;11.82;3.37;;;;;;;;;;4233910;33;20039;-75
2023/08/01 08:58:58;;;;;;;5.32;2.30;;;;;;;;;;4235363;33;20472;-76
2023/08/01 09:01:25;;;;;;;4.93;2.50;;;;;;;;;;4233725;33;20046;-75
2023/08/01 09:03:53;;;;;;;3.87;2.50;;;;;;;;;;4211549;34;20058;-76
2023/08/01 09:06:23;;;;;;;7.85;2.95;;;;;;;;;;4210802;34;20047;-76
2023/08/01 09:09:01;;;;;;;6.43;2.78;;;;;;;;;;4212196;34;20316;-77
2023/08/01 09:11:28;;;;;;;12.30;2.50;;;;;;;;;;4209968;34;20097;-75
2023/08/01 09:13:54;;;;;;;3.72;2.53;;;;;;;;;;4212009;34;20061;-77
2023/08/01 09:16:20;;;;;;;7.22;2.87;;;;;;;;;;4208744;34;20096;-76
2023/08/01 09:18:50;;;;;;;6.55;2.72;;;;;;;;;;4212400;34;20094;-75
2023/08/01 09:21:19;;;;;;;4.90;3.40;;;;;;;;;;4248791;33;20045;-76
2023/08/01 09:23:45;;;;;;;13.32;2.97;;;;;;;;;;4248013;33;20461;-76
2023/08/01 09:26:13;;;;;;;6.62;2.67;;;;;;;;;;4247643;33;20049;-74
2023/08/01 09:28:41;;;;;;;7.40;3.33;;;;;;;;;;4250033;33;20064;-75
2023/08/01 09:31:07;;;;;;;12.85;3.03;;;;;;;;;;4253634;33;20200;-74
2023/08/01 09:33:40;;;;;;;6.03;2.83;;;;;;;;;;4263042;33;20751;-74
2023/08/01 09:36:09;;;;;;;8.93;2.90;;;;;;;;;;4262401;33;20076;-75
2023/08/01 09:38:37;;;;;;;4.72;3.20;;;;;;;;;;4262389;33;20054;-75
2023/08/01 09:41:03;;;;;;;14.50;4.15;;;;;;;;;;4263357;33;20103;-75
2023/08/01 09:43:38;;;;;;;4.78;3.33;;;;;;;;;;4276061;33;20357;-76
2023/08/01 09:46:06;;;;;;;8.45;3.37;;;;;;;;;;4246185;33;20158;-77
2023/08/01 09:48:33;;;;;;;5.93;3.08;;;;;;;;;;4245874;33;20057;-75
2023/08/01 09:51:12;;;;;;;5.18;2.40;;;;;;;;;;4250865;33;20101;-76
2023/08/01 09:53:48;;;;;;;8.52;2.92;;;;;;;;;;4242887;33;20365;-76
2023/08/01 09:56:16;;;;;;;3.92;2.62;;;;;;;;;;4247202;33;20030;-75
2023/08/01 09:58:43;;;;;;;4.20;2.65;;;;;;;;;;4247947;33;20194;-75
2023/08/01 10:01:09;;;;;;;10.07;2.80;;;;;;;;;;4246283;33;20116;-76
2023/08/01 10:03:35;;;;;;;2.87;2.65;;;;;;;;;;4241528;33;20049;-75
2023/08/01 10:06:02;;;;;;;4.43;2.50;;;;;;;;;;4245715;33;20238;-76
2023/08/01 10:08:29;;;;;;;4.22;2.85;;;;;;;;;;4251400;33;20109;-76
2023/08/01 10:10:58;;;;;;;6.55;2.80;;;;;;;;;;4250686;33;20065;-76
2023/08/01 10:13:25;;;;;;;5.40;2.72;;;;;;;;;;4253974;33;20107;-75
2023/08/01 10:15:51;;;;;;;5.75;3.00;;;;;;;;;;4247233;33;20131;-76
2023/08/01 10:18:18;;;;;;;6.82;3.00;;;;;;;;;;4280433;33;20037;-75
2023/08/01 10:20:44;;;;;;;7.53;2.60;;;;;;;;;;4321710;33;20036;-74
2023/08/01 10:23:11;;;;;;;6.45;2.70;;;;;;;;;;4322709;33;20041;-75
2023/08/01 10:25:38;;;;;;;5.18;2.55;;;;;;;;;;4317189;33;20088;-75
2023/08/01 10:28:05;;;;;;;6.43;3.30;;;;;;;;;;4323144;33;20070;-76
2023/08/01 10:30:31;;;;;;;9.38;2.67;;;;;;;;;;4276255;33;20042;-75
2023/08/01 10:32:59;;;;;;;5.65;2.80;;;;;;;;;;4249780;33;20058;-75
2023/08/01 10:35:35;;;;;;;5.57;2.70;;;;;;;;;;4251488;33;20046;-74
2023/08/01 10:38:09;;;;;;;12.95;3.17;;;;;;;;;;4252313;33;20937;-76
2023/08/01 10:40:42;;;;;;;9.20;3.65;;;;;;;;;;4250148;33;20059;-74
2023/08/01 10:43:21;;;;;;;5.93;2.87;;;;;;;;;;4251207;33;20057;-74
2023/08/01 10:45:47;;;;;;;13.23;2.62;;;;;;;;;;4248224;33;20090;-74
2023/08/01 10:48:14;;;;;;;30.58;3.33;;;;;;;;;;4253455;33;20062;-77
2023/08/01 10:50:40;;;;;;;3.58;2.30;;;;;;;;;;4287431;33;20056;-74
2023/08/01 10:53:08;;;;;;;4.53;3.22;;;;;;;;;;4279601;33;20865;-74
2023/08/01 10:55:45;;;;;;;3.15;2.33;;;;;;;;;;4278958;33;20111;-75
2023/08/01 10:58:11;;;;;;;3.75;2.72;;;;;;;;;;4282396;33;20497;-75
2023/08/01 11:03:20;;;;;;;3.80;2.28;;;;;;;;;;4268086;33;20079;-74
2023/08/01 11:05:56;;;;;;;6.00;2.55;;;;;;;;;;4279066;33;20879;-75
2023/08/01 11:08:33;;;;;;;7.28;2.78;;;;;;;;;;4279202;33;20073;-75
2023/08/01 11:10:59;;;;;;;8.55;2.45;;;;;;;;;;4279636;33;20045;-75
2023/08/01 11:13:25;;;;;;;4.15;2.47;;;;;;;;;;4286109;33;20400;-75
2023/08/01 11:15:53;;;;;;;12.48;2.97;;;;;;;;;;4297565;33;20112;-76
2023/08/01 11:18:19;;;;;;;3.78;2.17;;;;;;;;;;4264442;33;20049;-75
2023/08/01 11:20:45;;;;;;;6.32;3.05;;;;;;;;;;4264519;33;20124;-75
2023/08/01 11:23:12;;;;;;;6.50;3.45;;;;;;;;;;4271109;33;20408;-75
2023/08/01 11:25:39;;;;;;;5.20;2.30;;;;;;;;;;4263462;33;20105;-75
2023/08/01 11:28:16;;;;;;;13.32;2.60;;;;;;;;;;4250613;33;20061;-74
2023/08/01 11:30:43;;;;;;;4.32;2.75;;;;;;;;;;4256291;33;20031;-75
2023/08/01 11:33:17;;;;;;;6.15;2.30;;;;;;;;;;4236621;33;20197;-75
2023/08/01 11:35:44;;;;;;;6.82;3.55;;;;;;;;;;4245054;33;20047;-76
2023/08/01 11:38:10;;;;;;;5.07;2.47;;;;;;;;;;4236925;33;20062;-76
2023/08/01 11:40:37;;;;;;;5.65;2.42;;;;;;;;;;4235231;33;20066;-75
2023/08/01 11:43:03;;;;;;;1.83;1.70;;;;;;;;;;4235124;33;20480;-75
2023/08/01 11:45:29;;;;;;;3.17;2.37;;;;;;;;;;4234475;33;20038;-75
2023/08/01 11:47:55;;;;;;;2.40;2.20;;;;;;;;;;4234699;33;20076;-75
2023/08/01 11:50:25;;;;;;;8.73;2.22;;;;;;;;;;4235464;33;20397;-75
2023/08/01 11:52:51;;;;;;;4.55;2.20;;;;;;;;;;4235783;33;20084;-75
2023/08/01 11:55:20;;;;;;;9.98;1.90;;;;;;;;;;4221016;33;20094;-74
2023/08/01 11:57:57;;;;;;;4.60;2.83;;;;;;;;;;4221821;34;20111;-75
2023/08/01 12:00:27;;;;;;;5.50;2.47;;;;;;;;;;4249904;33;20060;-75
2023/08/01 12:03:03;;;;;;;3.78;2.10;;;;;;;;;;4246731;33;20092;-75
2023/08/01 12:05:29;;;;;;;4.50;2.83;;;;;;;;;;4249312;33;20465;-74
2023/08/01 12:07:56;;;;;;;2.97;2.17;;;;;;;;;;4249703;33;21017;-75
2023/08/01 12:10:22;;;;;;;3.20;2.28;;;;;;;;;;4254529;33;20030;-74
2023/08/01 12:12:48;;;;;;;4.53;2.45;;;;;;;;;;4264091;33;20422;-75
2023/08/01 12:15:15;;;;;;;17.25;2.92;;;;;;;;;;4249842;33;20034;-75
2023/08/01 12:17:41;;;;;;;11.43;2.95;;;;;;;;;;4248726;33;20076;-74
2023/08/01 12:20:07;;;;;;;8.63;2.40;;;;;;;;;;4249475;33;20094;-74
2023/08/01 12:22:34;;;;;;;7.40;2.72;;;;;;;;;;4248249;33;20432;-74
2023/08/01 12:25:00;;;;;;;7.93;2.70;;;;;;;;;;4259136;33;20097;-75
2023/08/01 12:27:26;;;;;;;2.10;2.00;;;;;;;;;;4261888;33;20541;-75
2023/08/01 12:29:52;;;;;;;4.18;2.20;;;;;;;;;;4254565;33;20057;-75
2023/08/01 12:32:18;;;;;;;7.18;2.35;;;;;;;;;;4260717;33;20102;-75
2023/08/01 12:34:44;;;;;;;5.65;2.15;;;;;;;;;;4260293;33;20106;-76
2023/08/01 12:37:11;;;;;;;5.10;2.15;;;;;;;;;;4286187;33;20083;-75
2023/08/01 12:39:37;;;;;;;5.93;2.37;;;;;;;;;;4293497;33;20096;-76
2023/08/01 12:42:03;;;;;;;8.05;2.20;;;;;;;;;;4289118;33;20045;-76
2023/08/01 12:44:29;;;;;;;6.07;2.30;;;;;;;;;;4294160;33;20049;-75
2023/08/01 12:46:56;;;;;;;2.85;2.25;;;;;;;;;;4295127;33;20060;-75
2023/08/01 12:49:22;;;;;;;2.85;1.90;;;;;;;;;;4294115;33;20084;-76
2023/08/01 12:51:48;;;;;;;4.80;2.53;;;;;;;;;;4294435;33;20053;-73
2023/08/01 12:54:14;;;;;;;6.45;2.17;;;;;;;;;;4291907;33;20082;-75
2023/08/01 12:56:40;;;;;;;4.75;1.85;;;;;;;;;;4294687;33;20078;-75
2023/08/01 12:59:06;;;;;;;2.80;2.37;;;;;;;;;;4294965;33;20041;-75
2023/08/01 13:01:33;;;;;;;3.65;2.08;;;;;;;;;;4293482;33;20045;-74
2023/08/01 13:03:58;;;;;;;9.00;2.90;;;;;;;;;;4294446;33;20135;-73
2023/08/01 13:06:25;;;;;;;8.18;3.08;;;;;;;;;;4294015;33;20058;-75
2023/08/01 13:08:51;;;;;;;3.15;2.40;;;;;;;;;;4284528;33;20049;-74
2023/08/01 13:11:17;;;;;;;5.05;2.55;;;;;;;;;;4279671;33;20440;-76
2023/08/01 13:13:43;;;;;;;8.75;2.45;;;;;;;;;;4279346;33;20369;-74
2023/08/01 13:16:10;;;;;;;4.75;2.40;;;;;;;;;;4279241;33;20075;-74
2023/08/01 13:18:37;;;;;;;6.10;2.80;;;;;;;;;;4276144;33;20406;-75
2023/08/01 13:21:03;;;;;;;3.28;2.90;;;;;;;;;;4279124;33;20091;-76
2023/08/01 13:23:29;;;;;;;8.88;2.90;;;;;;;;;;4280607;33;20443;-74
2023/08/01 13:25:55;;;;;;;8.75;2.92;;;;;;;;;;4278965;33;20069;-74
2023/08/01 13:28:22;;;;;;;3.97;2.78;;;;;;;;;;4285043;33;20037;-76
2023/08/01 13:30:48;;;;;;;6.57;3.87;;;;;;;;;;4276687;33;20071;-74
2023/08/01 13:33:14;;;;;;;8.10;2.78;;;;;;;;;;4285470;33;21200;-74
2023/08/01 13:35:40;;;;;;;4.85;2.80;;;;;;;;;;4295678;33;20114;-74
2023/08/01 13:38:07;;;;;;;4.30;2.55;;;;;;;;;;4308560;33;20100;-75
2023/08/01 13:40:33;;;;;;;4.95;2.42;;;;;;;;;;4310070;33;20116;-74
2023/08/01 13:42:59;;;;;;;4.25;2.65;;;;;;;;;;4308054;33;20084;-76
2023/08/01 13:45:26;;;;;;;4.28;3.20;;;;;;;;;;4304357;33;20119;-74
2023/08/01 13:47:52;;;;;;;7.35;2.75;;;;;;;;;;4294991;33;20057;-74
2023/08/01 13:50:18;;;;;;;6.15;3.35;;;;;;;;;;4294847;33;20045;-75
2023/08/01 13:52:44;;;;;;;3.62;2.62;;;;;;;;;;4262913;33;20437;-75
2023/08/01 13:55:10;;;;;;;14.27;4.55;;;;;;;;;;4262096;33;20057;-76
2023/08/01 13:57:37;;;;;;;8.52;3.12;;;;;;;;;;4263563;33;21066;-77
2023/08/01 14:00:03;;;;;;;4.10;2.30;;;;;;;;;;4258148;33;20050;-76
2023/08/01 14:02:37;;;;;;;4.68;2.85;;;;;;;;;;4255710;33;20050;-76
2023/08/01 14:05:03;;;;;;;7.28;2.37;;;;;;;;;;4260445;33;20045;-76
2023/08/01 14:07:29;;;;;;;8.95;3.60;;;;;;;;;;4253357;33;20079;-76
2023/08/01 14:09:55;;;;;;;4.55;2.45;;;;;;;;;;4232363;33;20120;-76
2023/08/01 14:12:24;;;;;;;4.12;2.60;;;;;;;;;;4235852;33;20056;-74
2023/08/01 14:14:50;;;;;;;4.22;2.90;;;;;;;;;;4233792;33;20508;-75
2023/08/01 14:17:16;;;;;;;5.78;2.70;;;;;;;;;;4205988;34;20472;-75
2023/08/01 14:19:43;;;;;;;7.50;3.08;;;;;;;;;;4205955;34;20047;-79
2023/08/01 14:22:09;;;;;;;6.68;2.72;;;;;;;;;;4187483;34;20335;-75
2023/08/01 14:24:35;;;;;;;7.68;4.10;;;;;;;;;;4204612;34;20066;-75
2023/08/01 14:27:01;;;;;;;5.65;2.20;;;;;;;;;;4205363;34;20139;-75
2023/08/01 14:29:34;;;;;;;8.13;2.72;;;;;;;;;;4204786;34;20073;-76
2023/08/01 14:32:00;;;;;;;6.57;2.30;;;;;;;;;;4181796;34;20064;-76
2023/08/01 14:34:26;;;;;;;6.70;3.08;;;;;;;;;;4214751;34;20072;-75
2023/08/01 14:36:52;;;;;;;4.07;2.80;;;;;;;;;;4221267;33;20058;-74
2023/08/01 14:39:18;;;;;;;12.95;2.50;;;;;;;;;;4219864;34;20108;-74
2023/08/01 14:41:45;;;;;;;12.80;3.92;;;;;;;;;;4243187;33;20035;-73
2023/08/01 14:44:11;;;;;;;7.12;3.00;;;;;;;;;;4246593;33;20061;-75
2023/08/01 14:46:37;;;;;;;6.05;2.35;;;;;;;;;;4236039;33;20065;-74
2023/08/01 14:49:03;;;;;;;14.68;3.20;;;;;;;;;;4219869;34;20346;-73
2023/08/01 14:51:29;;;;;;;9.52;3.42;;;;;;;;;;4220872;34;20087;-74
2023/08/01 14:53:56;;;;;;;3.00;2.65;;;;;;;;;;4235708;33;20090;-76
2023/08/01 14:56:22;;;;;;;10.85;2.78;;;;;;;;;;4274577;33;20067;-75
2023/08/01 14:58:48;;;;;;;4.47;2.45;;;;;;;;;;4280560;33;20220;-75
2023/08/01 15:01:14;;;;;;;2.72;2.40;;;;;;;;;;4278874;33;20042;-75
2023/08/01 15:03:41;;;;;;;6.80;2.72;;;;;;;;;;4280301;33;20049;-74
2023/08/01 15:06:07;;;;;;;4.72;2.47;;;;;;;;;;4280845;33;20072;-76
2023/08/01 15:08:33;;;;;;;12.70;3.00;;;;;;;;;;4250290;33;20445;-76
2023/08/01 15:11:05;;;;;;;6.18;2.30;;;;;;;;;;4249863;33;20369;-75
2023/08/01 15:13:32;;;;;;;7.87;2.20;;;;;;;;;;4249975;33;20416;-75
2023/08/01 15:15:58;;;;;;;5.37;2.75;;;;;;;;;;4250167;33;20058;-75
2023/08/01 15:18:30;;;;;;;2.83;2.33;;;;;;;;;;4250463;33;20082;-75
2023/08/01 15:20:57;;;;;;;2.85;2.45;;;;;;;;;;4260139;33;21104;-72
2023/08/01 15:23:23;;;;;;;4.12;2.55;;;;;;;;;;4258187;33;20072;-73
2023/08/01 15:25:53;;;;;;;4.20;2.53;;;;;;;;;;4263110;33;20085;-73
2023/08/01 15:28:19;;;;;;;2.95;2.35;;;;;;;;;;4265255;33;20617;-73
2023/08/01 15:30:45;;;;;;;9.27;2.62;;;;;;;;;;4270345;33;20165;-74
2023/08/01 15:33:11;;;;;;;7.87;2.10;;;;;;;;;;4265216;33;20168;-73
2023/08/01 15:35:37;;;;;;;2.15;2.03;;;;;;;;;;4264879;33;20119;-74
2023/08/01 15:38:03;;;;;;;1.50;1.40;;;;;;;;;;4265300;33;20042;-73
2023/08/01 15:40:30;;;;;;;4.47;2.22;;;;;;;;;;4264197;33;20071;-74
2023/08/01 15:42:56;;;;;;;5.85;2.55;;;;;;;;;;4263141;33;20030;-75
2023/08/01 15:45:22;;;;;;;2.70;2.20;;;;;;;;;;4270440;33;20410;-72
2023/08/01 15:47:48;;;;;;;2.80;2.37;;;;;;;;;;4294070;33;20057;-73
2023/08/01 15:50:14;;;;;;;2.60;2.40;;;;;;;;;;4297113;33;20049;-73
2023/08/01 15:52:40;;;;;;;5.95;1.92;;;;;;;;;;4294993;33;20044;-74
2023/08/01 15:55:08;;;;;;;1.90;1.80;;;;;;;;;;4296706;33;20052;-73
2023/08/01 15:57:35;;;;;;;1.92;1.83;;;;;;;;;;4289229;33;20049;-73
2023/08/01 16:00:01;;;;;;;3.58;1.73;;;;;;;;;;4283685;33;20062;-74
2023/08/01 16:02:27;;;;;;;4.85;2.83;;;;;;;;;;4281545;33;20126;-73
2023/08/01 16:04:53;;;;;;;5.28;1.55;;;;;;;;;;4278402;33;20050;-73
2023/08/01 16:07:19;;;;;;;6.40;2.28;;;;;;;;;;4284394;33;20105;-74
2023/08/01 16:09:45;;;;;;;7.55;1.98;;;;;;;;;;4292347;33;20049;-74
2023/08/01 16:12:12;;;;;;;2.20;2.10;;;;;;;;;;4293517;33;20403;-74
2023/08/01 16:14:38;;;;;;;2.20;2.00;;;;;;;;;;4292363;33;20116;-84
2023/08/01 16:17:04;;;;;;;2.33;2.22;;;;;;;;;;4293088;33;20052;-74
2023/08/01 16:19:31;;;;;;;2.50;2.08;;;;;;;;;;4293541;33;20060;-74
2023/08/01 16:21:57;;;;;;;4.15;2.15;;;;;;;;;;4281167;33;20120;-77
2023/08/01 16:24:23;;;;;;;2.28;2.03;;;;;;;;;;4293617;33;20041;-75
2023/08/01 16:26:55;;;;;;;4.00;2.10;;;;;;;;;;4291172;33;20790;-75
2023/08/01 16:29:22;;;;;;;2.05;1.95;;;;;;;;;;4293793;33;20071;-76
2023/08/01 16:31:47;;;;;;;6.57;2.35;;;;;;;;;;4292517;33;20092;-75
2023/08/01 16:34:14;;;;;;;6.87;2.05;;;;;;;;;;4290700;33;20071;-75
2023/08/01 16:36:40;;;;;;;1.85;1.75;;;;;;;;;;4277255;33;20085;-75
2023/08/01 16:39:06;;;;;;;4.97;2.10;;;;;;;;;;4277182;33;20453;-75
2023/08/01 16:41:33;;;;;;;2.50;1.80;;;;;;;;;;4267466;33;20053;-76